sensor_id;sensor_type;location;lat;lon;timestamp;P1;durP1;ratioP1;P2;durP2;ratioP2
1414;SDS011;702;49.466;11.086;2023-05-29T00:01:43;3.00;;;2.20;;
1414;SDS011;702;49.466;11.086;2023-05-29T00:04:12;3.00;;;2.10;;
1414;SDS011;702;49.466;11.086;2023-05-29T00:06:39;4.70;;;2.40;;
1414;SDS011;702;49.466;11.086;2023-05-29T00:09:07;3.13;;;2.07;;
1414;SDS011;702;49.466;11.086;2023-05-29T00:11:34;4.00;;;2.30;;
1414;SDS011;702;49.466;11.086;2023-05-29T00:14:01;3.77;;;2.10;;
1414;SDS011;702;49.466;11.086;2023-05-29T00:16:30;3.03;;;2.33;;
1414;SDS011;702;49.466;11.086;2023-05-29T00:18:58;3.40;;;2.53;;
1414;SDS011;702;49.466;11.086;2023-05-29T00:21:27;2.53;;;2.00;;
1414;SDS011;702;49.466;11.086;2023-05-29T00:23:54;3.00;;;2.23;;
1414;SDS011;702;49.466;11.086;2023-05-29T00:26:21;3.13;;;2.17;;
1414;SDS011;702;49.466;11.086;2023-05-29T00:28:49;2.80;;;2.40;;
1414;SDS011;702;49.466;11.086;2023-05-29T00:31:16;5.70;;;2.23;;
1414;SDS011;702;49.466;11.086;2023-05-29T00:33:43;3.17;;;2.13;;
1414;SDS011;702;49.466;11.086;2023-05-29T00:36:11;5.67;;;2.53;;
1414;SDS011;702;49.466;11.086;2023-05-29T00:38:40;2.60;;;2.20;;
1414;SDS011;702;49.466;11.086;2023-05-29T00:41:07;2.23;;;1.90;;
1414;SDS011;702;49.466;11.086;2023-05-29T00:43:40;3.43;;;2.60;;
1414;SDS011;702;49.466;11.086;2023-05-29T00:46:07;3.70;;;2.53;;
1414;SDS011;702;49.466;11.086;2023-05-29T00:48:34;4.20;;;2.33;;
1414;SDS011;702;49.466;11.086;2023-05-29T00:51:02;5.87;;;2.40;;
1414;SDS011;702;49.466;11.086;2023-05-29T00:53:30;4.13;;;2.60;;
1414;SDS011;702;49.466;11.086;2023-05-29T00:55:59;3.37;;;2.50;;
1414;SDS011;702;49.466;11.086;2023-05-29T00:58:27;3.47;;;2.90;;
1414;SDS011;702;49.466;11.086;2023-05-29T01:00:55;3.47;;;2.40;;
1414;SDS011;702;49.466;11.086;2023-05-29T01:03:23;5.37;;;2.37;;
1414;SDS011;702;49.466;11.086;2023-05-29T01:05:51;2.33;;;2.07;;
1414;SDS011;702;49.466;11.086;2023-05-29T01:08:18;7.97;;;2.67;;
1414;SDS011;702;49.466;11.086;2023-05-29T01:10:45;4.90;;;2.10;;
1414;SDS011;702;49.466;11.086;2023-05-29T01:13:19;2.73;;;2.07;;
1414;SDS011;702;49.466;11.086;2023-05-29T01:15:51;3.47;;;2.80;;
1414;SDS011;702;49.466;11.086;2023-05-29T01:18:29;2.93;;;1.97;;
1414;SDS011;702;49.466;11.086;2023-05-29T01:21:07;3.53;;;2.40;;
1414;SDS011;702;49.466;11.086;2023-05-29T01:23:50;2.93;;;2.20;;
1414;SDS011;702;49.466;11.086;2023-05-29T01:26:36;3.73;;;2.50;;
1414;SDS011;702;49.466;11.086;2023-05-29T01:29:29;3.40;;;2.30;;
1414;SDS011;702;49.466;11.086;2023-05-29T01:32:01;2.90;;;2.27;;
1414;SDS011;702;49.466;11.086;2023-05-29T01:34:29;4.03;;;2.83;;
1414;SDS011;702;49.466;11.086;2023-05-29T01:36:57;3.50;;;2.60;;
1414;SDS011;702;49.466;11.086;2023-05-29T01:39:24;3.27;;;2.40;;
1414;SDS011;702;49.466;11.086;2023-05-29T01:41:53;3.40;;;2.20;;
1414;SDS011;702;49.466;11.086;2023-05-29T01:44:22;4.10;;;2.50;;
1414;SDS011;702;49.466;11.086;2023-05-29T01:46:51;3.57;;;2.77;;
1414;SDS011;702;49.466;11.086;2023-05-29T01:49:19;4.50;;;2.47;;
1414;SDS011;702;49.466;11.086;2023-05-29T01:51:49;2.73;;;2.20;;
1414;SDS011;702;49.466;11.086;2023-05-29T01:54:16;3.30;;;2.17;;
1414;SDS011;702;49.466;11.086;2023-05-29T01:56:44;2.80;;;2.20;;
1414;SDS011;702;49.466;11.086;2023-05-29T01:59:14;6.70;;;2.70;;
1414;SDS011;702;49.466;11.086;2023-05-29T02:01:42;3.10;;;2.17;;
1414;SDS011;702;49.466;11.086;2023-05-29T02:04:11;3.23;;;2.60;;
1414;SDS011;702;49.466;11.086;2023-05-29T02:06:39;2.67;;;2.17;;
1414;SDS011;702;49.466;11.086;2023-05-29T02:09:08;2.70;;;2.30;;
1414;SDS011;702;49.466;11.086;2023-05-29T02:11:35;4.77;;;2.87;;
1414;SDS011;702;49.466;11.086;2023-05-29T02:14:02;4.70;;;2.20;;
1414;SDS011;702;49.466;11.086;2023-05-29T02:16:34;3.83;;;2.90;;
1414;SDS011;702;49.466;11.086;2023-05-29T02:19:01;3.83;;;2.40;;
1414;SDS011;702;49.466;11.086;2023-05-29T02:21:29;3.23;;;2.83;;
1414;SDS011;702;49.466;11.086;2023-05-29T02:23:56;4.37;;;2.67;;
1414;SDS011;702;49.466;11.086;2023-05-29T02:26:24;3.43;;;2.23;;
1414;SDS011;702;49.466;11.086;2023-05-29T02:28:51;3.57;;;2.67;;
1414;SDS011;702;49.466;11.086;2023-05-29T02:31:18;6.57;;;2.60;;
1414;SDS011;702;49.466;11.086;2023-05-29T02:33:47;3.50;;;2.50;;
1414;SDS011;702;49.466;11.086;2023-05-29T02:36:15;4.20;;;2.30;;
1414;SDS011;702;49.466;11.086;2023-05-29T02:38:42;4.13;;;3.30;;
1414;SDS011;702;49.466;11.086;2023-05-29T02:41:09;4.00;;;2.90;;
1414;SDS011;702;49.466;11.086;2023-05-29T02:43:36;3.90;;;3.10;;
1414;SDS011;702;49.466;11.086;2023-05-29T02:46:04;3.57;;;2.20;;
1414;SDS011;702;49.466;11.086;2023-05-29T02:48:31;4.50;;;3.00;;
1414;SDS011;702;49.466;11.086;2023-05-29T02:51:00;3.10;;;2.70;;
1414;SDS011;702;49.466;11.086;2023-05-29T02:53:27;3.40;;;2.40;;
1414;SDS011;702;49.466;11.086;2023-05-29T02:55:55;3.00;;;2.47;;
1414;SDS011;702;49.466;11.086;2023-05-29T02:58:22;4.03;;;2.53;;
1414;SDS011;702;49.466;11.086;2023-05-29T03:00:49;3.00;;;2.30;;
1414;SDS011;702;49.466;11.086;2023-05-29T03:03:18;8.60;;;2.83;;
1414;SDS011;702;49.466;11.086;2023-05-29T03:05:45;4.37;;;2.13;;
1414;SDS011;702;49.466;11.086;2023-05-29T03:08:14;5.33;;;2.60;;
1414;SDS011;702;49.466;11.086;2023-05-29T03:10:41;4.63;;;2.80;;
1414;SDS011;702;49.466;11.086;2023-05-29T03:13:09;4.60;;;2.90;;
1414;SDS011;702;49.466;11.086;2023-05-29T03:15:36;4.97;;;2.70;;
1414;SDS011;702;49.466;11.086;2023-05-29T03:18:04;3.80;;;3.00;;
1414;SDS011;702;49.466;11.086;2023-05-29T03:20:31;3.10;;;2.40;;
1414;SDS011;702;49.466;11.086;2023-05-29T03:23:00;3.10;;;2.67;;
1414;SDS011;702;49.466;11.086;2023-05-29T03:25:29;4.43;;;3.30;;
1414;SDS011;702;49.466;11.086;2023-05-29T03:27:56;3.80;;;2.80;;
1414;SDS011;702;49.466;11.086;2023-05-29T03:30:24;6.23;;;3.07;;
1414;SDS011;702;49.466;11.086;2023-05-29T03:32:54;4.30;;;3.03;;
1414;SDS011;702;49.466;11.086;2023-05-29T03:35:21;6.23;;;2.63;;
1414;SDS011;702;49.466;11.086;2023-05-29T03:37:48;3.60;;;2.77;;
1414;SDS011;702;49.466;11.086;2023-05-29T03:40:15;5.23;;;2.60;;
1414;SDS011;702;49.466;11.086;2023-05-29T03:42:44;4.77;;;2.90;;
1414;SDS011;702;49.466;11.086;2023-05-29T03:45:11;4.03;;;2.87;;
1414;SDS011;702;49.466;11.086;2023-05-29T03:47:38;6.33;;;3.00;;
1414;SDS011;702;49.466;11.086;2023-05-29T03:50:06;4.10;;;3.20;;
1414;SDS011;702;49.466;11.086;2023-05-29T03:52:34;5.07;;;2.80;;
1414;SDS011;702;49.466;11.086;2023-05-29T03:55:01;3.50;;;2.70;;
1414;SDS011;702;49.466;11.086;2023-05-29T03:57:30;4.90;;;3.33;;
1414;SDS011;702;49.466;11.086;2023-05-29T03:59:59;9.70;;;3.90;;
1414;SDS011;702;49.466;11.086;2023-05-29T04:02:26;6.10;;;4.20;;
1414;SDS011;702;49.466;11.086;2023-05-29T04:04:53;6.53;;;3.70;;
1414;SDS011;702;49.466;11.086;2023-05-29T04:07:20;5.30;;;3.87;;
1414;SDS011;702;49.466;11.086;2023-05-29T04:09:50;10.13;;;4.60;;
1414;SDS011;702;49.466;11.086;2023-05-29T04:12:18;7.60;;;4.00;;
1414;SDS011;702;49.466;11.086;2023-05-29T04:14:45;5.93;;;3.70;;
1414;SDS011;702;49.466;11.086;2023-05-29T04:17:14;8.37;;;4.47;;
1414;SDS011;702;49.466;11.086;2023-05-29T04:19:41;3.60;;;2.87;;
1414;SDS011;702;49.466;11.086;2023-05-29T04:22:09;4.23;;;3.20;;
1414;SDS011;702;49.466;11.086;2023-05-29T04:24:36;4.50;;;3.43;;
1414;SDS011;702;49.466;11.086;2023-05-29T04:27:04;4.57;;;3.10;;
1414;SDS011;702;49.466;11.086;2023-05-29T04:29:31;4.03;;;2.87;;
1414;SDS011;702;49.466;11.086;2023-05-29T04:32:01;4.93;;;3.00;;
1414;SDS011;702;49.466;11.086;2023-05-29T04:34:31;5.33;;;3.17;;
1414;SDS011;702;49.466;11.086;2023-05-29T04:36:59;4.30;;;3.13;;
1414;SDS011;702;49.466;11.086;2023-05-29T04:39:28;3.50;;;2.50;;
1414;SDS011;702;49.466;11.086;2023-05-29T04:41:55;3.50;;;2.70;;
1414;SDS011;702;49.466;11.086;2023-05-29T04:44:23;3.47;;;2.60;;
1414;SDS011;702;49.466;11.086;2023-05-29T04:46:52;7.27;;;2.97;;
1414;SDS011;702;49.466;11.086;2023-05-29T04:49:19;3.37;;;2.50;;
1414;SDS011;702;49.466;11.086;2023-05-29T04:51:48;5.37;;;2.97;;
1414;SDS011;702;49.466;11.086;2023-05-29T04:54:18;6.10;;;3.27;;
1414;SDS011;702;49.466;11.086;2023-05-29T04:56:46;3.60;;;2.77;;
1414;SDS011;702;49.466;11.086;2023-05-29T04:59:14;2.87;;;2.57;;
1414;SDS011;702;49.466;11.086;2023-05-29T05:01:41;3.90;;;2.97;;
1414;SDS011;702;49.466;11.086;2023-05-29T05:04:09;3.47;;;2.87;;
1414;SDS011;702;49.466;11.086;2023-05-29T05:06:36;4.70;;;2.70;;
1414;SDS011;702;49.466;11.086;2023-05-29T05:09:05;3.50;;;2.33;;
1414;SDS011;702;49.466;11.086;2023-05-29T05:11:33;2.97;;;2.67;;
1414;SDS011;702;49.466;11.086;2023-05-29T05:14:00;4.77;;;2.80;;
1414;SDS011;702;49.466;11.086;2023-05-29T05:16:27;4.83;;;2.33;;
1414;SDS011;702;49.466;11.086;2023-05-29T05:18:54;4.00;;;2.70;;
1414;SDS011;702;49.466;11.086;2023-05-29T05:21:21;4.20;;;3.00;;
1414;SDS011;702;49.466;11.086;2023-05-29T05:23:49;5.17;;;3.10;;
1414;SDS011;702;49.466;11.086;2023-05-29T05:26:17;4.07;;;2.87;;
1414;SDS011;702;49.466;11.086;2023-05-29T05:28:45;3.77;;;3.07;;
1414;SDS011;702;49.466;11.086;2023-05-29T05:31:13;5.50;;;2.93;;
1414;SDS011;702;49.466;11.086;2023-05-29T05:33:40;2.53;;;2.33;;
1414;SDS011;702;49.466;11.086;2023-05-29T05:36:07;6.27;;;3.23;;
1414;SDS011;702;49.466;11.086;2023-05-29T05:38:35;3.20;;;2.63;;
1414;SDS011;702;49.466;11.086;2023-05-29T05:41:03;3.60;;;2.27;;
1414;SDS011;702;49.466;11.086;2023-05-29T05:43:31;3.20;;;2.77;;
1414;SDS011;702;49.466;11.086;2023-05-29T05:45:59;2.83;;;2.30;;
1414;SDS011;702;49.466;11.086;2023-05-29T05:48:26;4.53;;;2.80;;
1414;SDS011;702;49.466;11.086;2023-05-29T05:50:53;2.47;;;2.03;;
1414;SDS011;702;49.466;11.086;2023-05-29T05:53:21;4.90;;;2.83;;
1414;SDS011;702;49.466;11.086;2023-05-29T05:55:48;4.10;;;2.80;;
1414;SDS011;702;49.466;11.086;2023-05-29T05:58:16;3.93;;;3.40;;
1414;SDS011;702;49.466;11.086;2023-05-29T06:00:45;3.80;;;2.40;;
1414;SDS011;702;49.466;11.086;2023-05-29T06:03:12;4.27;;;3.20;;
1414;SDS011;702;49.466;11.086;2023-05-29T06:05:39;2.73;;;2.53;;
1414;SDS011;702;49.466;11.086;2023-05-29T06:08:06;4.13;;;2.80;;
1414;SDS011;702;49.466;11.086;2023-05-29T06:10:34;4.23;;;2.63;;
1414;SDS011;702;49.466;11.086;2023-05-29T06:13:01;3.37;;;1.90;;
1414;SDS011;702;49.466;11.086;2023-05-29T06:15:29;2.93;;;2.63;;
1414;SDS011;702;49.466;11.086;2023-05-29T06:17:57;2.90;;;2.47;;
1414;SDS011;702;49.466;11.086;2023-05-29T06:20:25;4.00;;;2.63;;
1414;SDS011;702;49.466;11.086;2023-05-29T06:22:53;2.83;;;2.50;;
1414;SDS011;702;49.466;11.086;2023-05-29T06:25:20;4.40;;;2.70;;
1414;SDS011;702;49.466;11.086;2023-05-29T06:27:47;5.80;;;3.20;;
1414;SDS011;702;49.466;11.086;2023-05-29T06:30:14;3.60;;;2.03;;
1414;SDS011;702;49.466;11.086;2023-05-29T06:32:42;3.03;;;2.27;;
1414;SDS011;702;49.466;11.086;2023-05-29T06:35:10;3.00;;;2.70;;
1414;SDS011;702;49.466;11.086;2023-05-29T06:37:37;2.47;;;2.23;;
1414;SDS011;702;49.466;11.086;2023-05-29T06:40:05;3.00;;;2.20;;
1414;SDS011;702;49.466;11.086;2023-05-29T06:42:33;6.10;;;2.37;;
1414;SDS011;702;49.466;11.086;2023-05-29T06:45:01;3.40;;;2.07;;
1414;SDS011;702;49.466;11.086;2023-05-29T06:47:28;3.83;;;2.60;;
1414;SDS011;702;49.466;11.086;2023-05-29T06:49:55;2.73;;;2.50;;
1414;SDS011;702;49.466;11.086;2023-05-29T06:52:24;2.97;;;2.10;;
1414;SDS011;702;49.466;11.086;2023-05-29T06:54:51;3.00;;;1.90;;
1414;SDS011;702;49.466;11.086;2023-05-29T06:57:19;2.90;;;2.33;;
1414;SDS011;702;49.466;11.086;2023-05-29T06:59:46;3.43;;;2.37;;
1414;SDS011;702;49.466;11.086;2023-05-29T07:02:14;2.87;;;2.10;;
1414;SDS011;702;49.466;11.086;2023-05-29T07:04:41;2.30;;;2.07;;
1414;SDS011;702;49.466;11.086;2023-05-29T07:07:08;3.70;;;2.90;;
1414;SDS011;702;49.466;11.086;2023-05-29T07:09:37;3.67;;;2.60;;
1414;SDS011;702;49.466;11.086;2023-05-29T07:12:05;3.40;;;2.47;;
1414;SDS011;702;49.466;11.086;2023-05-29T07:14:33;2.50;;;2.20;;
1414;SDS011;702;49.466;11.086;2023-05-29T07:17:00;3.07;;;2.40;;
1414;SDS011;702;49.466;11.086;2023-05-29T07:19:27;5.00;;;2.83;;
1414;SDS011;702;49.466;11.086;2023-05-29T07:21:56;3.00;;;2.80;;
1414;SDS011;702;49.466;11.086;2023-05-29T07:24:23;2.43;;;2.07;;
1414;SDS011;702;49.466;11.086;2023-05-29T07:26:53;6.53;;;3.57;;
1414;SDS011;702;49.466;11.086;2023-05-29T07:29:20;3.00;;;2.07;;
1414;SDS011;702;49.466;11.086;2023-05-29T07:31:48;4.63;;;2.00;;
1414;SDS011;702;49.466;11.086;2023-05-29T07:34:15;3.03;;;2.27;;
1414;SDS011;702;49.466;11.086;2023-05-29T07:37:00;3.37;;;2.70;;
1414;SDS011;702;49.466;11.086;2023-05-29T07:39:29;2.87;;;2.40;;
1414;SDS011;702;49.466;11.086;2023-05-29T07:41:57;3.17;;;2.87;;
1414;SDS011;702;49.466;11.086;2023-05-29T07:44:26;2.50;;;2.27;;
1414;SDS011;702;49.466;11.086;2023-05-29T07:46:53;5.30;;;2.50;;
1414;SDS011;702;49.466;11.086;2023-05-29T07:49:21;2.63;;;2.27;;
1414;SDS011;702;49.466;11.086;2023-05-29T07:51:49;2.90;;;2.20;;
1414;SDS011;702;49.466;11.086;2023-05-29T07:54:16;2.47;;;2.07;;
1414;SDS011;702;49.466;11.086;2023-05-29T07:56:45;2.80;;;1.70;;
1414;SDS011;702;49.466;11.086;2023-05-29T07:59:14;3.67;;;2.43;;
1414;SDS011;702;49.466;11.086;2023-05-29T08:01:42;2.60;;;2.20;;
1414;SDS011;702;49.466;11.086;2023-05-29T08:04:09;2.53;;;2.17;;
1414;SDS011;702;49.466;11.086;2023-05-29T08:06:37;2.00;;;1.70;;
1414;SDS011;702;49.466;11.086;2023-05-29T08:09:07;4.30;;;3.40;;
1414;SDS011;702;49.466;11.086;2023-05-29T08:11:35;2.10;;;1.90;;
1414;SDS011;702;49.466;11.086;2023-05-29T08:14:03;4.40;;;2.57;;
1414;SDS011;702;49.466;11.086;2023-05-29T08:16:31;3.13;;;2.03;;
1414;SDS011;702;49.466;11.086;2023-05-29T08:19:00;3.43;;;1.97;;
1414;SDS011;702;49.466;11.086;2023-05-29T08:21:27;2.30;;;1.80;;
1414;SDS011;702;49.466;11.086;2023-05-29T08:23:54;3.03;;;2.17;;
1414;SDS011;702;49.466;11.086;2023-05-29T08:26:21;2.70;;;1.90;;
1414;SDS011;702;49.466;11.086;2023-05-29T08:28:48;3.40;;;2.00;;
1414;SDS011;702;49.466;11.086;2023-05-29T08:31:16;3.63;;;2.47;;
1414;SDS011;702;49.466;11.086;2023-05-29T08:33:45;2.93;;;2.10;;
1414;SDS011;702;49.466;11.086;2023-05-29T08:36:12;2.80;;;2.23;;
1414;SDS011;702;49.466;11.086;2023-05-29T08:38:40;2.83;;;1.90;;
1414;SDS011;702;49.466;11.086;2023-05-29T08:41:07;2.17;;;1.97;;
1414;SDS011;702;49.466;11.086;2023-05-29T08:43:39;2.43;;;2.10;;
1414;SDS011;702;49.466;11.086;2023-05-29T08:46:07;2.97;;;1.90;;
1414;SDS011;702;49.466;11.086;2023-05-29T08:48:36;2.40;;;1.70;;
1414;SDS011;702;49.466;11.086;2023-05-29T08:51:08;2.10;;;1.90;;
1414;SDS011;702;49.466;11.086;2023-05-29T08:53:36;3.00;;;1.97;;
1414;SDS011;702;49.466;11.086;2023-05-29T08:56:04;2.80;;;2.10;;
1414;SDS011;702;49.466;11.086;2023-05-29T08:58:32;3.37;;;1.80;;
1414;SDS011;702;49.466;11.086;2023-05-29T09:01:00;2.57;;;2.37;;
1414;SDS011;702;49.466;11.086;2023-05-29T09:03:28;2.60;;;2.20;;
1414;SDS011;702;49.466;11.086;2023-05-29T09:05:57;2.57;;;2.00;;
1414;SDS011;702;49.466;11.086;2023-05-29T09:08:27;2.20;;;2.00;;
1414;SDS011;702;49.466;11.086;2023-05-29T09:10:54;2.37;;;2.13;;
1414;SDS011;702;49.466;11.086;2023-05-29T09:13:22;4.13;;;2.40;;
1414;SDS011;702;49.466;11.086;2023-05-29T09:15:50;2.67;;;2.47;;
1414;SDS011;702;49.466;11.086;2023-05-29T09:18:23;4.77;;;2.33;;
1414;SDS011;702;49.466;11.086;2023-05-29T09:20:55;2.60;;;1.80;;
1414;SDS011;702;49.466;11.086;2023-05-29T09:23:23;2.90;;;2.30;;
1414;SDS011;702;49.466;11.086;2023-05-29T09:25:53;2.20;;;2.00;;
1414;SDS011;702;49.466;11.086;2023-05-29T09:28:21;3.20;;;2.20;;
1414;SDS011;702;49.466;11.086;2023-05-29T09:30:51;3.50;;;1.87;;
1414;SDS011;702;49.466;11.086;2023-05-29T09:33:18;4.00;;;2.50;;
1414;SDS011;702;49.466;11.086;2023-05-29T09:35:46;3.00;;;2.40;;
1414;SDS011;702;49.466;11.086;2023-05-29T09:38:16;2.60;;;2.27;;
1414;SDS011;702;49.466;11.086;2023-05-29T09:40:46;3.90;;;2.40;;
1414;SDS011;702;49.466;11.086;2023-05-29T09:43:14;1.60;;;1.50;;
1414;SDS011;702;49.466;11.086;2023-05-29T09:45:43;5.77;;;2.10;;
1414;SDS011;702;49.466;11.086;2023-05-29T09:48:12;1.80;;;1.70;;
1414;SDS011;702;49.466;11.086;2023-05-29T09:50:41;2.50;;;2.20;;
1414;SDS011;702;49.466;11.086;2023-05-29T09:53:17;3.00;;;2.30;;
1414;SDS011;702;49.466;11.086;2023-05-29T09:55:47;2.57;;;2.20;;
1414;SDS011;702;49.466;11.086;2023-05-29T09:58:16;2.60;;;2.07;;
1414;SDS011;702;49.466;11.086;2023-05-29T10:00:45;3.73;;;2.07;;
1414;SDS011;702;49.466;11.086;2023-05-29T10:03:14;2.90;;;2.20;;
1414;SDS011;702;49.466;11.086;2023-05-29T10:05:43;2.67;;;2.37;;
1414;SDS011;702;49.466;11.086;2023-05-29T10:08:17;2.77;;;1.90;;
1414;SDS011;702;49.466;11.086;2023-05-29T10:10:47;2.67;;;2.23;;
1414;SDS011;702;49.466;11.086;2023-05-29T10:13:23;3.20;;;1.63;;
1414;SDS011;702;49.466;11.086;2023-05-29T10:15:52;2.47;;;1.87;;
1414;SDS011;702;49.466;11.086;2023-05-29T10:18:23;3.23;;;2.40;;
1414;SDS011;702;49.466;11.086;2023-05-29T10:20:56;2.87;;;1.97;;
1414;SDS011;702;49.466;11.086;2023-05-29T10:23:25;2.17;;;1.97;;
1414;SDS011;702;49.466;11.086;2023-05-29T10:25:57;3.63;;;2.13;;
1414;SDS011;702;49.466;11.086;2023-05-29T10:28:37;2.43;;;1.90;;
1414;SDS011;702;49.466;11.086;2023-05-29T10:31:13;2.97;;;1.90;;
1414;SDS011;702;49.466;11.086;2023-05-29T10:33:51;2.43;;;1.90;;
1414;SDS011;702;49.466;11.086;2023-05-29T10:36:33;2.00;;;1.73;;
1414;SDS011;702;49.466;11.086;2023-05-29T10:39:05;2.90;;;2.00;;
1414;SDS011;702;49.466;11.086;2023-05-29T10:41:34;2.33;;;1.57;;
1414;SDS011;702;49.466;11.086;2023-05-29T10:47:08;3.93;;;1.60;;
1414;SDS011;702;49.466;11.086;2023-05-29T10:49:48;4.37;;;1.63;;
1414;SDS011;702;49.466;11.086;2023-05-29T10:52:18;2.60;;;2.17;;
1414;SDS011;702;49.466;11.086;2023-05-29T10:54:51;3.20;;;2.23;;
1414;SDS011;702;49.466;11.086;2023-05-29T10:57:24;3.33;;;1.90;;
1414;SDS011;702;49.466;11.086;2023-05-29T10:59:58;2.40;;;1.90;;
1414;SDS011;702;49.466;11.086;2023-05-29T11:02:29;2.50;;;2.00;;
1414;SDS011;702;49.466;11.086;2023-05-29T11:05:06;3.00;;;1.67;;
1414;SDS011;702;49.466;11.086;2023-05-29T11:07:51;2.77;;;2.30;;
1414;SDS011;702;49.466;11.086;2023-05-29T11:10:42;2.03;;;1.80;;
1414;SDS011;702;49.466;11.086;2023-05-29T11:13:24;2.97;;;1.87;;
1414;SDS011;702;49.466;11.086;2023-05-29T11:16:11;3.37;;;1.87;;
1414;SDS011;702;49.466;11.086;2023-05-29T11:18:41;1.83;;;1.60;;
1414;SDS011;702;49.466;11.086;2023-05-29T11:21:22;2.60;;;2.10;;
1414;SDS011;702;49.466;11.086;2023-05-29T11:24:00;2.17;;;1.60;;
1414;SDS011;702;49.466;11.086;2023-05-29T11:26:31;3.23;;;2.17;;
1414;SDS011;702;49.466;11.086;2023-05-29T11:29:02;2.70;;;1.90;;
1414;SDS011;702;49.466;11.086;2023-05-29T11:31:31;3.27;;;2.97;;
1414;SDS011;702;49.466;11.086;2023-05-29T11:34:02;2.27;;;1.80;;
1414;SDS011;702;49.466;11.086;2023-05-29T11:36:31;1.93;;;1.83;;
1414;SDS011;702;49.466;11.086;2023-05-29T11:38:58;1.93;;;1.67;;
1414;SDS011;702;49.466;11.086;2023-05-29T11:41:26;2.03;;;1.50;;
1414;SDS011;702;49.466;11.086;2023-05-29T11:43:57;2.23;;;2.00;;
1414;SDS011;702;49.466;11.086;2023-05-29T11:46:28;2.23;;;1.60;;
1414;SDS011;702;49.466;11.086;2023-05-29T11:48:58;2.77;;;1.83;;
1414;SDS011;702;49.466;11.086;2023-05-29T11:51:25;1.90;;;1.70;;
1414;SDS011;702;49.466;11.086;2023-05-29T11:53:54;1.67;;;1.57;;
1414;SDS011;702;49.466;11.086;2023-05-29T11:56:24;3.10;;;2.10;;
1414;SDS011;702;49.466;11.086;2023-05-29T11:58:51;2.00;;;1.80;;
1414;SDS011;702;49.466;11.086;2023-05-29T12:01:22;2.40;;;1.90;;
1414;SDS011;702;49.466;11.086;2023-05-29T12:03:52;2.83;;;2.20;;
1414;SDS011;702;49.466;11.086;2023-05-29T12:06:30;3.10;;;2.10;;
1414;SDS011;702;49.466;11.086;2023-05-29T12:08:59;2.23;;;1.73;;
1414;SDS011;702;49.466;11.086;2023-05-29T12:11:27;5.37;;;1.70;;
1414;SDS011;702;49.466;11.086;2023-05-29T12:13:55;2.30;;;1.83;;
1414;SDS011;702;49.466;11.086;2023-05-29T12:16:25;2.70;;;2.13;;
1414;SDS011;702;49.466;11.086;2023-05-29T12:18:54;2.30;;;1.90;;
1414;SDS011;702;49.466;11.086;2023-05-29T12:21:21;1.97;;;1.70;;
1414;SDS011;702;49.466;11.086;2023-05-29T12:23:51;2.77;;;1.73;;
1414;SDS011;702;49.466;11.086;2023-05-29T12:26:21;1.90;;;1.53;;
1414;SDS011;702;49.466;11.086;2023-05-29T12:28:51;2.83;;;1.87;;
1414;SDS011;702;49.466;11.086;2023-05-29T12:31:28;2.17;;;1.97;;
1414;SDS011;702;49.466;11.086;2023-05-29T12:34:01;3.30;;;1.97;;
1414;SDS011;702;49.466;11.086;2023-05-29T12:36:34;4.07;;;1.70;;
1414;SDS011;702;49.466;11.086;2023-05-29T12:39:04;2.50;;;1.93;;
1414;SDS011;702;49.466;11.086;2023-05-29T12:41:35;6.70;;;1.90;;
1414;SDS011;702;49.466;11.086;2023-05-29T12:44:05;1.70;;;1.40;;
1414;SDS011;702;49.466;11.086;2023-05-29T12:46:37;2.10;;;1.90;;
1414;SDS011;702;49.466;11.086;2023-05-29T12:49:14;3.10;;;1.87;;
1414;SDS011;702;49.466;11.086;2023-05-29T12:51:43;2.70;;;1.80;;
1414;SDS011;702;49.466;11.086;2023-05-29T12:54:11;1.93;;;1.73;;
1414;SDS011;702;49.466;11.086;2023-05-29T12:56:39;1.70;;;1.60;;
1414;SDS011;702;49.466;11.086;2023-05-29T12:59:07;1.93;;;1.60;;
1414;SDS011;702;49.466;11.086;2023-05-29T13:01:36;2.40;;;2.03;;
1414;SDS011;702;49.466;11.086;2023-05-29T13:04:04;2.40;;;1.70;;
1414;SDS011;702;49.466;11.086;2023-05-29T13:06:33;1.67;;;1.37;;
1414;SDS011;702;49.466;11.086;2023-05-29T13:09:01;1.67;;;1.40;;
1414;SDS011;702;49.466;11.086;2023-05-29T13:11:29;2.70;;;1.70;;
1414;SDS011;702;49.466;11.086;2023-05-29T13:13:57;1.90;;;1.70;;
1414;SDS011;702;49.466;11.086;2023-05-29T13:16:24;2.00;;;1.60;;
1414;SDS011;702;49.466;11.086;2023-05-29T13:18:51;1.97;;;1.77;;
1414;SDS011;702;49.466;11.086;2023-05-29T13:21:18;1.77;;;1.53;;
1414;SDS011;702;49.466;11.086;2023-05-29T13:23:47;2.10;;;1.83;;
1414;SDS011;702;49.466;11.086;2023-05-29T13:26:14;2.93;;;1.50;;
1414;SDS011;702;49.466;11.086;2023-05-29T13:28:41;1.60;;;1.43;;
1414;SDS011;702;49.466;11.086;2023-05-29T13:31:11;2.20;;;2.00;;
1414;SDS011;702;49.466;11.086;2023-05-29T13:33:39;2.00;;;1.70;;
1414;SDS011;702;49.466;11.086;2023-05-29T13:36:06;3.23;;;2.40;;
1414;SDS011;702;49.466;11.086;2023-05-29T13:38:34;2.20;;;2.00;;
1414;SDS011;702;49.466;11.086;2023-05-29T13:41:02;2.13;;;1.80;;
1414;SDS011;702;49.466;11.086;2023-05-29T13:43:32;2.20;;;1.80;;
1414;SDS011;702;49.466;11.086;2023-05-29T13:45:59;3.10;;;2.00;;
1414;SDS011;702;49.466;11.086;2023-05-29T13:48:26;1.70;;;1.60;;
1414;SDS011;702;49.466;11.086;2023-05-29T13:50:53;3.17;;;2.10;;
1414;SDS011;702;49.466;11.086;2023-05-29T13:53:21;1.93;;;1.70;;
1414;SDS011;702;49.466;11.086;2023-05-29T13:55:48;2.20;;;2.00;;
1414;SDS011;702;49.466;11.086;2023-05-29T13:58:16;2.07;;;1.70;;
1414;SDS011;702;49.466;11.086;2023-05-29T14:00:44;2.43;;;2.00;;
1414;SDS011;702;49.466;11.086;2023-05-29T14:03:12;2.27;;;1.50;;
1414;SDS011;702;49.466;11.086;2023-05-29T14:05:40;2.13;;;1.80;;
1414;SDS011;702;49.466;11.086;2023-05-29T14:08:07;2.17;;;1.70;;
1414;SDS011;702;49.466;11.086;2023-05-29T14:10:34;2.53;;;1.90;;
1414;SDS011;702;49.466;11.086;2023-05-29T14:13:01;2.43;;;1.83;;
1414;SDS011;702;49.466;11.086;2023-05-29T14:15:31;2.70;;;1.90;;
1414;SDS011;702;49.466;11.086;2023-05-29T14:17:58;3.00;;;1.70;;
1414;SDS011;702;49.466;11.086;2023-05-29T14:20:27;2.00;;;1.80;;
1414;SDS011;702;49.466;11.086;2023-05-29T14:22:55;1.80;;;1.60;;
1414;SDS011;702;49.466;11.086;2023-05-29T14:25:22;3.10;;;1.80;;
1414;SDS011;702;49.466;11.086;2023-05-29T14:27:49;3.67;;;2.97;;
1414;SDS011;702;49.466;11.086;2023-05-29T14:30:17;6.27;;;3.20;;
1414;SDS011;702;49.466;11.086;2023-05-29T14:32:45;2.63;;;2.00;;
1414;SDS011;702;49.466;11.086;2023-05-29T14:35:13;2.47;;;2.17;;
1414;SDS011;702;49.466;11.086;2023-05-29T14:37:40;2.43;;;2.23;;
1414;SDS011;702;49.466;11.086;2023-05-29T14:40:08;3.10;;;2.27;;
1414;SDS011;702;49.466;11.086;2023-05-29T14:42:36;2.60;;;2.20;;
1414;SDS011;702;49.466;11.086;2023-05-29T14:45:04;2.20;;;1.80;;
1414;SDS011;702;49.466;11.086;2023-05-29T14:47:34;4.03;;;2.37;;
1414;SDS011;702;49.466;11.086;2023-05-29T14:50:03;2.77;;;1.87;;
1414;SDS011;702;49.466;11.086;2023-05-29T14:52:32;2.70;;;2.13;;
1414;SDS011;702;49.466;11.086;2023-05-29T14:55:01;2.40;;;1.70;;
1414;SDS011;702;49.466;11.086;2023-05-29T14:57:28;2.20;;;1.90;;
1414;SDS011;702;49.466;11.086;2023-05-29T14:59:59;3.40;;;2.17;;
1414;SDS011;702;49.466;11.086;2023-05-29T15:02:26;1.97;;;1.80;;
1414;SDS011;702;49.466;11.086;2023-05-29T15:04:53;2.43;;;1.97;;
1414;SDS011;702;49.466;11.086;2023-05-29T15:07:22;4.43;;;2.20;;
1414;SDS011;702;49.466;11.086;2023-05-29T15:09:49;2.50;;;1.53;;
1414;SDS011;702;49.466;11.086;2023-05-29T15:12:17;3.20;;;2.10;;
1414;SDS011;702;49.466;11.086;2023-05-29T15:14:44;2.37;;;2.03;;
1414;SDS011;702;49.466;11.086;2023-05-29T15:17:12;1.93;;;1.73;;
1414;SDS011;702;49.466;11.086;2023-05-29T15:19:39;1.70;;;1.40;;
1414;SDS011;702;49.466;11.086;2023-05-29T15:22:06;3.20;;;2.53;;
1414;SDS011;702;49.466;11.086;2023-05-29T15:24:35;2.83;;;2.50;;
1414;SDS011;702;49.466;11.086;2023-05-29T15:27:02;3.13;;;2.43;;
1414;SDS011;702;49.466;11.086;2023-05-29T15:29:31;3.57;;;2.10;;